sensor_id;sensor_type;location;lat;lon;timestamp;pressure;altitude;pressure_sealevel;temperature;humidity
42003;BME280;27693;50.506;30.832;2023-04-29T00:00:15;99849.36;;;5.71;58.48
42003;BME280;27693;50.506;30.832;2023-04-29T00:01:19;99860.55;;;5.71;58.65
42003;BME280;27693;50.506;30.832;2023-04-29T00:02:21;99852.81;;;5.71;58.65
42003;BME280;27693;50.506;30.832;2023-04-29T00:03:24;99853.69;;;5.70;58.80
42003;BME280;27693;50.506;30.832;2023-04-29T00:04:29;99854.62;;;5.68;58.98
42003;BME280;27693;50.506;30.832;2023-04-29T00:05:32;99856.32;;;5.69;59.23
42003;BME280;27693;50.506;30.832;2023-04-29T00:06:35;99859.78;;;5.68;59.45
42003;BME280;27693;50.506;30.832;2023-04-29T00:07:38;99858.08;;;5.67;59.63
42003;BME280;27693;50.506;30.832;2023-04-29T00:08:40;99855.54;;;5.65;59.73
42003;BME280;27693;50.506;30.832;2023-04-29T00:09:42;99857.30;;;5.63;59.96
42003;BME280;27693;50.506;30.832;2023-04-29T00:10:45;99854.77;;;5.62;60.19
42003;BME280;27693;50.506;30.832;2023-04-29T00:11:48;99845.36;;;5.59;60.18
42003;BME280;27693;50.506;30.832;2023-04-29T00:12:51;99844.44;;;5.62;60.24
42003;BME280;27693;50.506;30.832;2023-04-29T00:13:54;99851.36;;;5.59;60.21
42003;BME280;27693;50.506;30.832;2023-04-29T00:14:58;99848.73;;;5.61;60.33
42003;BME280;27693;50.506;30.832;2023-04-29T00:16:01;99849.52;;;5.65;60.30
42003;BME280;27693;50.506;30.832;2023-04-29T00:17:04;99848.72;;;5.63;60.33
42003;BME280;27693;50.506;30.832;2023-04-29T00:18:16;99851.22;;;5.66;60.37
42003;BME280;27693;50.506;30.832;2023-04-29T00:19:18;99846.25;;;5.56;60.53
42003;BME280;27693;50.506;30.832;2023-04-29T00:20:22;99839.44;;;5.54;60.32
42003;BME280;27693;50.506;30.832;2023-04-29T00:21:24;99839.52;;;5.51;60.11
42003;BME280;27693;50.506;30.832;2023-04-29T00:22:28;99833.50;;;5.50;60.27
42003;BME280;27693;50.506;30.832;2023-04-29T00:23:36;99838.66;;;5.50;60.20
42003;BME280;27693;50.506;30.832;2023-04-29T00:24:39;99842.16;;;5.48;60.24
42003;BME280;27693;50.506;30.832;2023-04-29T00:25:41;99847.50;;;5.40;59.87
42003;BME280;27693;50.506;30.832;2023-04-29T00:26:44;99848.33;;;5.42;59.74
42003;BME280;27693;50.506;30.832;2023-04-29T00:27:47;99841.47;;;5.41;59.68
42003;BME280;27693;50.506;30.832;2023-04-29T00:28:49;99841.38;;;5.44;59.58
42003;BME280;27693;50.506;30.832;2023-04-29T00:29:52;99838.70;;;5.49;59.39
42003;BME280;27693;50.506;30.832;2023-04-29T00:30:56;99841.33;;;5.47;59.20
42003;BME280;27693;50.506;30.832;2023-04-29T00:31:59;99842.12;;;5.49;59.35
42003;BME280;27693;50.506;30.832;2023-04-29T00:33:01;99845.61;;;5.48;59.17
42003;BME280;27693;50.506;30.832;2023-04-29T00:34:04;99844.78;;;5.46;59.00
42003;BME280;27693;50.506;30.832;2023-04-29T00:35:07;99844.78;;;5.46;59.05
42003;BME280;27693;50.506;30.832;2023-04-29T00:36:10;99844.78;;;5.46;59.05
42003;BME280;27693;50.506;30.832;2023-04-29T00:37:12;99846.55;;;5.44;59.03
42003;BME280;27693;50.506;30.832;2023-04-29T00:38:15;99845.62;;;5.47;59.12
42003;BME280;27693;50.506;30.832;2023-04-29T00:39:18;99854.33;;;5.42;59.15
42003;BME280;27693;50.506;30.832;2023-04-29T00:40:22;99844.06;;;5.39;59.10
42003;BME280;27693;50.506;30.832;2023-04-29T00:41:25;99838.84;;;5.42;58.50
42003;BME280;27693;50.506;30.832;2023-04-29T00:42:30;99842.41;;;5.37;58.70
42003;BME280;27693;50.506;30.832;2023-04-29T00:43:34;99840.64;;;5.39;58.90
42003;BME280;27693;50.506;30.832;2023-04-29T00:44:38;99838.02;;;5.40;58.77
42003;BME280;27693;50.506;30.832;2023-04-29T00:45:41;99834.52;;;5.43;58.85
42003;BME280;27693;50.506;30.832;2023-04-29T00:46:44;99840.59;;;5.40;58.68
42003;BME280;27693;50.506;30.832;2023-04-29T00:47:47;99844.92;;;5.40;58.83
42003;BME280;27693;50.506;30.832;2023-04-29T00:48:51;99840.83;;;5.31;58.79
42003;BME280;27693;50.506;30.832;2023-04-29T00:49:54;99840.05;;;5.27;59.05
42003;BME280;27693;50.506;30.832;2023-04-29T00:50:56;99839.08;;;5.32;59.08
42003;BME280;27693;50.506;30.832;2023-04-29T00:51:59;99842.50;;;5.32;59.00
42003;BME280;27693;50.506;30.832;2023-04-29T00:53:03;99832.27;;;5.29;59.17
42003;BME280;27693;50.506;30.832;2023-04-29T00:54:07;99832.27;;;5.29;59.17
42003;BME280;27693;50.506;30.832;2023-04-29T00:55:10;99845.06;;;5.34;58.97
42003;BME280;27693;50.506;30.832;2023-04-29T00:56:17;99842.58;;;5.29;58.80
42003;BME280;27693;50.506;30.832;2023-04-29T00:57:22;99839.96;;;5.31;59.12
42003;BME280;27693;50.506;30.832;2023-04-29T00:58:25;99847.74;;;5.29;59.21
42003;BME280;27693;50.506;30.832;2023-04-29T00:59:29;99843.42;;;5.30;59.14
42003;BME280;27693;50.506;30.832;2023-04-29T01:00:33;99844.34;;;5.27;59.30
42003;BME280;27693;50.506;30.832;2023-04-29T01:01:36;99851.20;;;5.28;59.05
42003;BME280;27693;50.506;30.832;2023-04-29T01:02:40;99847.74;;;5.29;59.20
42003;BME280;27693;50.506;30.832;2023-04-29T01:03:43;99854.64;;;5.28;58.91
42003;BME280;27693;50.506;30.832;2023-04-29T01:04:47;99848.66;;;5.26;59.23
42003;BME280;27693;50.506;30.832;2023-04-29T01:05:54;99848.80;;;5.20;59.21
42003;BME280;27693;50.506;30.832;2023-04-29T01:09:49;99856.72;;;5.11;59.33
42003;BME280;27693;50.506;30.832;2023-04-29T01:10:56;99850.61;;;5.15;59.52
42003;BME280;27693;50.506;30.832;2023-04-29T01:14:38;99858.34;;;5.15;59.82
42003;BME280;27693;50.506;30.832;2023-04-29T01:15:48;99862.70;;;5.13;59.56
42003;BME280;27693;50.506;30.832;2023-04-29T01:16:55;99856.77;;;5.09;59.65
42003;BME280;27693;50.506;30.832;2023-04-29T01:19:36;99864.54;;;5.08;59.97
42003;BME280;27693;50.506;30.832;2023-04-29T01:20:37;99864.54;;;5.08;60.12
42003;BME280;27693;50.506;30.832;2023-04-29T01:21:46;99855.84;;;5.12;60.17
42003;BME280;27693;50.506;30.832;2023-04-29T01:22:51;99861.05;;;5.09;59.93
42003;BME280;27693;50.506;30.832;2023-04-29T01:23:54;99854.23;;;5.08;60.15
42003;BME280;27693;50.506;30.832;2023-04-29T01:25:01;99860.17;;;5.10;60.32
42003;BME280;27693;50.506;30.832;2023-04-29T01:26:05;99862.76;;;5.10;60.20
42003;BME280;27693;50.506;30.832;2023-04-29T01:30:51;99860.26;;;5.07;60.59
42003;BME280;27693;50.506;30.832;2023-04-29T01:38:30;99867.20;;;5.03;60.94
42003;BME280;27693;50.506;30.832;2023-04-29T01:40:25;99866.43;;;4.98;61.00
42003;BME280;27693;50.506;30.832;2023-04-29T01:40:58;99869.14;;;4.92;61.13
42003;BME280;27693;50.506;30.832;2023-04-29T01:42:35;99869.13;;;4.93;61.23
42003;BME280;27693;50.506;30.832;2023-04-29T01:43:42;99868.27;;;4.93;61.10
42003;BME280;27693;50.506;30.832;2023-04-29T01:44:52;99871.70;;;4.93;61.47
42003;BME280;27693;50.506;30.832;2023-04-29T01:45:57;99880.36;;;4.89;61.33
42003;BME280;27693;50.506;30.832;2023-04-29T01:47:01;99875.20;;;4.89;61.53
42003;BME280;27693;50.506;30.832;2023-04-29T01:48:07;99884.73;;;4.87;61.51
42003;BME280;27693;50.506;30.832;2023-04-29T01:49:11;99879.53;;;4.89;61.60
42003;BME280;27693;50.506;30.832;2023-04-29T01:50:16;99880.44;;;4.86;61.34
42003;BME280;27693;50.506;30.832;2023-04-29T01:51:19;99873.55;;;4.87;61.44
42003;BME280;27693;50.506;30.832;2023-04-29T01:52:22;99882.98;;;4.88;61.33
42003;BME280;27693;50.506;30.832;2023-04-29T01:53:26;99884.73;;;4.87;61.35
42003;BME280;27693;50.506;30.832;2023-04-29T01:54:29;99882.14;;;4.87;61.44
42003;BME280;27693;50.506;30.832;2023-04-29T01:55:33;99881.23;;;4.90;61.51
42003;BME280;27693;50.506;30.832;2023-04-29T01:56:38;99880.41;;;4.88;61.72
42003;BME280;27693;50.506;30.832;2023-04-29T01:57:43;99884.81;;;4.83;61.70
42003;BME280;27693;50.506;30.832;2023-04-29T01:58:56;99884.81;;;4.83;61.86
42003;BME280;27693;50.506;30.832;2023-04-29T02:00:11;99879.66;;;4.83;61.89
42003;BME280;27693;50.506;30.832;2023-04-29T02:01:14;99879.66;;;4.81;61.92
42003;BME280;27693;50.506;30.832;2023-04-29T02:02:17;99880.48;;;4.83;61.90
42003;BME280;27693;50.506;30.832;2023-04-29T02:03:23;99884.93;;;4.76;61.98
42003;BME280;27693;50.506;30.832;2023-04-29T02:04:28;99879.78;;;4.75;62.15
42003;BME280;27693;50.506;30.832;2023-04-29T02:05:31;99877.28;;;4.72;62.03
42003;BME280;27693;50.506;30.832;2023-04-29T02:06:35;99886.77;;;4.70;62.05
42003;BME280;27693;50.506;30.832;2023-04-29T02:07:38;99882.48;;;4.69;62.19
42003;BME280;27693;50.506;30.832;2023-04-29T02:08:41;99890.21;;;4.69;62.47
42003;BME280;27693;50.506;30.832;2023-04-29T02:09:44;99889.45;;;4.63;62.28
42003;BME280;27693;50.506;30.832;2023-04-29T02:12:04;99887.52;;;4.75;62.15
42003;BME280;27693;50.506;30.832;2023-04-29T02:13:07;99891.16;;;4.64;62.27
42003;BME280;27693;50.506;30.832;2023-04-29T02:14:12;99890.41;;;4.59;62.24
42003;BME280;27693;50.506;30.832;2023-04-29T02:15:15;99887.83;;;4.59;62.31
42003;BME280;27693;50.506;30.832;2023-04-29T02:16:18;99888.63;;;4.61;62.36
42003;BME280;27693;50.506;30.832;2023-04-29T02:17:26;99889.53;;;4.59;62.10
42003;BME280;27693;50.506;30.832;2023-04-29T02:18:29;99887.08;;;4.53;62.45
42003;BME280;27693;50.506;30.832;2023-04-29T02:19:31;99887.04;;;4.54;62.65
42003;BME280;27693;50.506;30.832;2023-04-29T02:20:34;99887.88;;;4.56;62.54
42003;BME280;27693;50.506;30.832;2023-04-29T02:21:38;99881.84;;;4.57;62.60
42003;BME280;27693;50.506;30.832;2023-04-29T02:22:40;99891.36;;;4.54;62.48
42003;BME280;27693;50.506;30.832;2023-04-29T02:23:45;99890.56;;;4.50;62.48
42003;BME280;27693;50.506;30.832;2023-04-29T02:24:48;99890.52;;;4.52;62.58
42003;BME280;27693;50.506;30.832;2023-04-29T02:25:51;99894.84;;;4.51;62.70
42003;BME280;27693;50.506;30.832;2023-04-29T02:26:54;99888.81;;;4.52;62.69
42003;BME280;27693;50.506;30.832;2023-04-29T02:27:57;99897.45;;;4.50;62.68
42003;BME280;27693;50.506;30.832;2023-04-29T02:29:01;99893.14;;;4.50;62.80
42003;BME280;27693;50.506;30.832;2023-04-29T02:30:06;99899.99;;;4.51;62.79
42003;BME280;27693;50.506;30.832;2023-04-29T02:31:09;99907.83;;;4.45;62.62
42003;BME280;27693;50.506;30.832;2023-04-29T02:32:11;99907.83;;;4.45;62.62
42003;BME280;27693;50.506;30.832;2023-04-29T02:33:16;99903.48;;;4.47;62.72
42003;BME280;27693;50.506;30.832;2023-04-29T02:34:22;99912.05;;;4.49;62.80
42003;BME280;27693;50.506;30.832;2023-04-29T02:35:25;99907.80;;;4.46;62.66
42003;BME280;27693;50.506;30.832;2023-04-29T02:36:29;99905.19;;;4.48;62.75
42003;BME280;27693;50.506;30.832;2023-04-29T02:37:33;99898.33;;;4.47;62.47
42003;BME280;27693;50.506;30.832;2023-04-29T02:38:37;99902.61;;;4.48;62.55
42003;BME280;27693;50.506;30.832;2023-04-29T02:39:39;99910.41;;;4.45;62.52
42003;BME280;27693;50.506;30.832;2023-04-29T02:40:45;99906.17;;;4.41;62.62
42003;BME280;27693;50.506;30.832;2023-04-29T02:41:53;99906.31;;;4.33;62.79
42003;BME280;27693;50.506;30.832;2023-04-29T02:42:55;99904.58;;;4.34;62.90
42003;BME280;27693;50.506;30.832;2023-04-29T02:43:58;99899.38;;;4.37;62.93
42003;BME280;27693;50.506;30.832;2023-04-29T02:45:01;99907.05;;;4.40;62.91
42003;BME280;27693;50.506;30.832;2023-04-29T02:46:05;99907.05;;;4.40;63.03
42003;BME280;27693;50.506;30.832;2023-04-29T02:47:08;99910.52;;;4.39;62.83
42003;BME280;27693;50.506;30.832;2023-04-29T02:48:11;99905.38;;;4.39;62.94
42003;BME280;27693;50.506;30.832;2023-04-29T02:49:14;99912.20;;;4.40;63.11
42003;BME280;27693;50.506;30.832;2023-04-29T02:50:18;99913.90;;;4.41;63.21
42003;BME280;27693;50.506;30.832;2023-04-29T02:51:21;99914.77;;;4.41;62.93
42003;BME280;27693;50.506;30.832;2023-04-29T02:52:23;99914.77;;;4.40;63.09
42003;BME280;27693;50.506;30.832;2023-04-29T02:53:25;99916.47;;;4.42;63.05
42003;BME280;27693;50.506;30.832;2023-04-29T02:54:30;99920.72;;;4.43;62.89
42003;BME280;27693;50.506;30.832;2023-04-29T02:55:33;99922.50;;;4.40;62.78
42003;BME280;27693;50.506;30.832;2023-04-29T02:56:37;99926.02;;;4.36;63.00
42003;BME280;27693;50.506;30.832;2023-04-29T02:57:40;99920.97;;;4.29;63.18
42003;BME280;27693;50.506;30.832;2023-04-29T02:58:43;99923.52;;;4.31;63.36
42003;BME280;27693;50.506;30.832;2023-04-29T02:59:45;99930.33;;;4.34;63.25
42003;BME280;27693;50.506;30.832;2023-04-29T03:00:48;99931.20;;;4.32;63.13
42003;BME280;27693;50.506;30.832;2023-04-29T03:01:51;99928.66;;;4.31;63.20
42003;BME280;27693;50.506;30.832;2023-04-29T03:02:55;99932.21;;;4.25;63.02
42003;BME280;27693;50.506;30.832;2023-04-29T03:03:59;99929.64;;;4.25;63.37
42003;BME280;27693;50.506;30.832;2023-04-29T03:05:03;99929.56;;;4.28;63.40
42003;BME280;27693;50.506;30.832;2023-04-29T03:06:06;99940.64;;;4.34;63.22
42003;BME280;27693;50.506;30.832;2023-04-29T03:07:09;99934.72;;;4.28;63.17
42003;BME280;27693;50.506;30.832;2023-04-29T03:08:12;99933.88;;;4.28;63.18
42003;BME280;27693;50.506;30.832;2023-04-29T03:09:16;99935.59;;;4.29;63.28
42003;BME280;27693;50.506;30.832;2023-04-29T03:10:20;99932.98;;;4.30;63.44
42003;BME280;27693;50.506;30.832;2023-04-29T03:11:24;99939.10;;;4.23;62.95
42003;BME280;27693;50.506;30.832;2023-04-29T03:12:26;99939.94;;;4.25;63.07
42003;BME280;27693;50.506;30.832;2023-04-29T03:13:29;99945.02;;;4.28;63.05
42003;BME280;27693;50.506;30.832;2023-04-29T03:14:31;99941.61;;;4.26;62.84
42003;BME280;27693;50.506;30.832;2023-04-29T03:15:34;99940.73;;;4.29;63.03
42003;BME280;27693;50.506;30.832;2023-04-29T03:16:36;99944.19;;;4.28;62.83
42003;BME280;27693;50.506;30.832;2023-04-29T03:17:40;99938.23;;;4.24;62.74
42003;BME280;27693;50.506;30.832;2023-04-29T03:18:43;99938.16;;;4.27;62.91
42003;BME280;27693;50.506;30.832;2023-04-29T03:19:46;99940.70;;;4.30;62.73
42003;BME280;27693;50.506;30.832;2023-04-29T03:20:50;99943.21;;;4.34;62.86
42003;BME280;27693;50.506;30.832;2023-04-29T03:21:53;99938.13;;;4.30;62.54
42003;BME280;27693;50.506;30.832;2023-04-29T03:22:59;99945.02;;;4.28;62.70
42003;BME280;27693;50.506;30.832;2023-04-29T03:24:04;99948.43;;;4.30;62.57
42003;BME280;27693;50.506;30.832;2023-04-29T03:25:09;99949.16;;;4.37;62.56
42003;BME280;27693;50.506;30.832;2023-04-29T03:26:13;99947.39;;;4.41;62.52
42003;BME280;27693;50.506;30.832;2023-04-29T03:27:17;99953.38;;;4.43;62.40
42003;BME280;27693;50.506;30.832;2023-04-29T03:28:19;99956.78;;;4.45;62.38
42003;BME280;27693;50.506;30.832;2023-04-29T03:29:25;99956.72;;;4.48;62.23
42003;BME280;27693;50.506;30.832;2023-04-29T03:30:30;99957.63;;;4.45;61.93
42003;BME280;27693;50.506;30.832;2023-04-29T03:31:34;99958.42;;;4.49;62.26
42003;BME280;27693;50.506;30.832;2023-04-29T03:32:37;99958.42;;;4.49;61.96
42003;BME280;27693;50.506;30.832;2023-04-29T03:33:42;99962.67;;;4.52;62.05
42003;BME280;27693;50.506;30.832;2023-04-29T03:34:45;99961.86;;;4.50;61.83
42003;BME280;27693;50.506;30.832;2023-04-29T03:35:53;99959.29;;;4.50;61.91
42003;BME280;27693;50.506;30.832;2023-04-29T03:37:00;99969.56;;;4.51;61.82
42003;BME280;27693;50.506;30.832;2023-04-29T03:38:02;99965.20;;;4.53;61.94
42003;BME280;27693;50.506;30.832;2023-04-29T03:39:07;99965.17;;;4.56;61.73
42003;BME280;27693;50.506;30.832;2023-04-29T03:40:12;99965.20;;;4.53;61.56
42003;BME280;27693;50.506;30.832;2023-04-29T03:41:14;99965.20;;;4.53;61.56
42003;BME280;27693;50.506;30.832;2023-04-29T03:42:22;99962.63;;;4.53;61.88
42003;BME280;27693;50.506;30.832;2023-04-29T03:43:24;99960.89;;;4.55;61.97
42003;BME280;27693;50.506;30.832;2023-04-29T03:44:27;99962.56;;;4.58;61.88
42003;BME280;27693;50.506;30.832;2023-04-29T03:45:31;99960.84;;;4.58;61.68
42003;BME280;27693;50.506;30.832;2023-04-29T03:46:34;99972.86;;;4.59;61.48
42003;BME280;27693;50.506;30.832;2023-04-29T03:47:37;99968.58;;;4.58;61.37
42003;BME280;27693;50.506;30.832;2023-04-29T03:48:40;99970.22;;;4.62;61.48
42003;BME280;27693;50.506;30.832;2023-04-29T03:49:43;99969.48;;;4.56;61.35
42003;BME280;27693;50.506;30.832;2023-04-29T03:50:46;99965.06;;;4.62;61.28
42003;BME280;27693;50.506;30.832;2023-04-29T03:51:48;99966.80;;;4.62;61.29
42003;BME280;27693;50.506;30.832;2023-04-29T03:52:51;99971.02;;;4.66;61.24
42003;BME280;27693;50.506;30.832;2023-04-29T03:53:54;99969.20;;;4.71;61.08
42003;BME280;27693;50.506;30.832;2023-04-29T03:54:59;99973.41;;;4.77;60.79
42003;BME280;27693;50.506;30.832;2023-04-29T03:56:03;99966.62;;;4.73;60.35
42003;BME280;27693;50.506;30.832;2023-04-29T03:57:05;99973.41;;;4.77;60.42
42003;BME280;27693;50.506;30.832;2023-04-29T03:58:09;99969.13;;;4.76;60.41
42003;BME280;27693;50.506;30.832;2023-04-29T03:59:11;99964.00;;;4.74;60.36
42003;BME280;27693;50.506;30.832;2023-04-29T04:00:16;99970.79;;;4.78;60.61
42003;BME280;27693;50.506;30.832;2023-04-29T04:01:19;99963.85;;;4.82;60.58
42003;BME280;27693;50.506;30.832;2023-04-29T04:02:23;99982.92;;;4.73;59.86
42003;BME280;27693;50.506;30.832;2023-04-29T04:03:27;99963.09;;;4.77;60.40
42003;BME280;27693;50.506;30.832;2023-04-29T04:04:31;99973.29;;;4.83;59.98
42003;BME280;27693;50.506;30.832;2023-04-29T04:05:35;99969.87;;;4.81;59.81
42003;BME280;27693;50.506;30.832;2023-04-29T04:06:39;99967.19;;;4.89;60.09
42003;BME280;27693;50.506;30.832;2023-04-29T04:07:42;99969.69;;;4.92;59.60
42003;BME280;27693;50.506;30.832;2023-04-29T04:08:55;99971.36;;;4.94;59.47
42003;BME280;27693;50.506;30.832;2023-04-29T04:10:02;99976.52;;;4.94;59.44
42003;BME280;27693;50.506;30.832;2023-04-29T04:11:05;99983.45;;;4.91;59.32
42003;BME280;27693;50.506;30.832;2023-04-29T04:12:10;99978.29;;;4.92;59.54
42003;BME280;27693;50.506;30.832;2023-04-29T04:13:13;99978.22;;;4.95;59.66
42003;BME280;27693;50.506;30.832;2023-04-29T04:14:17;99978.09;;;5.02;59.85
42003;BME280;27693;50.506;30.832;2023-04-29T04:15:20;99979.84;;;5.01;59.65
42003;BME280;27693;50.506;30.832;2023-04-29T04:16:23;99988.37;;;5.05;59.75
42003;BME280;27693;50.506;30.832;2023-04-29T04:17:27;99982.30;;;5.07;59.67
42003;BME280;27693;50.506;30.832;2023-04-29T04:18:30;99984.84;;;5.09;59.54
42003;BME280;27693;50.506;30.832;2023-04-29T04:19:34;99990.83;;;5.11;59.48
42003;BME280;27693;50.506;30.832;2023-04-29T04:20:36;99984.80;;;5.12;59.41
42003;BME280;27693;50.506;30.832;2023-04-29T04:21:39;99985.59;;;5.16;59.45
42003;BME280;27693;50.506;30.832;2023-04-29T04:22:43;99990.75;;;5.16;59.37
42003;BME280;27693;50.506;30.832;2023-04-29T04:23:50;99989.84;;;5.18;59.36
42003;BME280;27693;50.506;30.832;2023-04-29T04:24:55;99991.54;;;5.19;59.11
42003;BME280;27693;50.506;30.832;2023-04-29T04:25:57;99994.03;;;5.24;59.18
42003;BME280;27693;50.506;30.832;2023-04-29T04:27:14;99993.13;;;5.26;58.99
42003;BME280;27693;50.506;30.832;2023-04-29T04:28:18;99999.12;;;5.27;58.77
42003;BME280;27693;50.506;30.832;2023-04-29T04:29:23;99994.75;;;5.31;58.74
42003;BME280;27693;50.506;30.832;2023-04-29T04:30:29;99990.45;;;5.31;58.42
42003;BME280;27693;50.506;30.832;2023-04-29T04:31:33;99983.43;;;5.38;58.58
42003;BME280;27693;50.506;30.832;2023-04-29T04:32:35;99997.20;;;5.38;58.38
42003;BME280;27693;50.506;30.832;2023-04-29T04:33:38;99984.26;;;5.40;58.24
42003;BME280;27693;50.506;30.832;2023-04-29T04:34:41;99991.05;;;5.44;57.33
42003;BME280;27693;50.506;30.832;2023-04-29T04:35:44;99990.99;;;5.47;57.70
42003;BME280;27693;50.506;30.832;2023-04-29T04:36:46;99989.16;;;5.52;58.13
42003;BME280;27693;50.506;30.832;2023-04-29T04:37:49;99988.98;;;5.62;57.29
42003;BME280;27693;50.506;30.832;2023-04-29T04:38:51;99988.98;;;5.62;57.29
42003;BME280;27693;50.506;30.832;2023-04-29T04:39:54;99996.73;;;5.60;57.12
42003;BME280;27693;50.506;30.832;2023-04-29T04:40:56;99995.80;;;5.64;56.94
42003;BME280;27693;50.506;30.832;2023-04-29T04:42:10;99993.13;;;5.69;56.97
42003;BME280;27693;50.506;30.832;2023-04-29T04:43:13;99997.39;;;5.70;56.80
42003;BME280;27693;50.506;30.832;2023-04-29T04:44:16;99992.17;;;5.73;56.74
42003;BME280;27693;50.506;30.832;2023-04-29T04:45:29;99998.12;;;5.76;56.61
42003;BME280;27693;50.506;30.832;2023-04-29T04:46:32;99991.98;;;5.82;56.70
42003;BME280;27693;50.506;30.832;2023-04-29T04:47:40;99998.77;;;5.86;56.40
42003;BME280;27693;50.506;30.832;2023-04-29T04:48:44;99999.55;;;5.90;56.28
42003;BME280;27693;50.506;30.832;2023-04-29T04:49:48;99994.33;;;5.93;55.95
42003;BME280;27693;50.506;30.832;2023-04-29T04:50:55;99993.41;;;5.96;55.89
42003;BME280;27693;50.506;30.832;2023-04-29T04:51:58;99998.47;;;6.02;56.03
42003;BME280;27693;50.506;30.832;2023-04-29T04:53:00;99993.22;;;6.05;55.98
42003;BME280;27693;50.506;30.832;2023-04-29T04:54:05;99997.36;;;6.12;55.75
42003;BME280;27693;50.506;30.832;2023-04-29T04:55:08;99995.54;;;6.17;55.41
42003;BME280;27693;50.506;30.832;2023-04-29T04:56:11;100004.02;;;6.22;55.55
42003;BME280;27693;50.506;30.832;2023-04-29T04:57:14;100000.52;;;6.25;55.05
42003;BME280;27693;50.506;30.832;2023-04-29T04:58:17;100006.37;;;6.32;54.97
42003;BME280;27693;50.506;30.832;2023-04-29T04:59:21;100001.97;;;6.37;54.66
42003;BME280;27693;50.506;30.832;2023-04-29T05:00:23;100001.00;;;6.41;54.28
42003;BME280;27693;50.506;30.832;2023-04-29T05:01:27;100000.05;;;6.45;54.05
42003;BME280;27693;50.506;30.832;2023-04-29T05:02:30;99994.79;;;6.48;53.77
42003;BME280;27693;50.506;30.832;2023-04-29T05:03:32;99993.81;;;6.52;53.30
42003;BME280;27693;50.506;30.832;2023-04-29T05:04:36;99991.22;;;6.54;52.35
42003;BME280;27693;50.506;30.832;2023-04-29T05:05:38;100000.58;;;6.58;52.33
42003;BME280;27693;50.506;30.832;2023-04-29T05:06:41;99993.59;;;6.62;51.67
42003;BME280;27693;50.506;30.832;2023-04-29T05:07:43;100001.25;;;6.66;51.74
42003;BME280;27693;50.506;30.832;2023-04-29T05:08:47;99996.75;;;6.73;51.31
42003;BME280;27693;50.506;30.832;2023-04-29T05:09:50;99998.39;;;6.77;50.90
42003;BME280;27693;50.506;30.832;2023-04-29T05:10:54;99994.83;;;6.81;50.58
42003;BME280;27693;50.506;30.832;2023-04-29T05:11:56;99994.76;;;6.84;49.71
42003;BME280;27693;50.506;30.832;2023-04-29T05:13:02;99992.06;;;6.89;49.27
42003;BME280;27693;50.506;30.832;2023-04-29T05:14:04;99994.59;;;6.91;48.68
42003;BME280;27693;50.506;30.832;2023-04-29T05:15:07;99991.91;;;6.94;48.66
42003;BME280;27693;50.506;30.832;2023-04-29T05:16:10;99998.72;;;6.98;49.00
42003;BME280;27693;50.506;30.832;2023-04-29T05:17:14;99992.56;;;7.02;48.78
42003;BME280;27693;50.506;30.832;2023-04-29T05:18:17;99995.86;;;7.07;49.37
42003;BME280;27693;50.506;30.832;2023-04-29T05:19:20;99994.96;;;7.10;49.11
42003;BME280;27693;50.506;30.832;2023-04-29T05:20:22;99993.04;;;7.16;49.06
42003;BME280;27693;50.506;30.832;2023-04-29T05:21:25;99999.84;;;7.21;48.47
42003;BME280;27693;50.506;30.832;2023-04-29T05:22:27;100000.56;;;7.26;48.56
42003;BME280;27693;50.506;30.832;2023-04-29T05:23:31;99998.93;;;7.22;47.25
42003;BME280;27693;50.506;30.832;2023-04-29T05:24:33;100001.34;;;7.28;47.25
42003;BME280;27693;50.506;30.832;2023-04-29T05:25:35;99999.67;;;7.27;47.19
42003;BME280;27693;50.506;30.832;2023-04-29T05:26:38;99999.63;;;7.28;47.63
42003;BME280;27693;50.506;30.832;2023-04-29T05:27:41;100007.27;;;7.33;47.33
42003;BME280;27693;50.506;30.832;2023-04-29T05:28:45;99996.91;;;7.33;47.41
42003;BME280;27693;50.506;30.832;2023-04-29T05:29:49;99998.52;;;7.37;47.35
42003;BME280;27693;50.506;30.832;2023-04-29T05:30:53;100000.14;;;7.41;47.75
42003;BME280;27693;50.506;30.832;2023-04-29T05:31:56;100002.67;;;7.43;47.47
42003;BME280;27693;50.506;30.832;2023-04-29T05:32:58;100004.38;;;7.44;47.41
42003;BME280;27693;50.506;30.832;2023-04-29T05:34:02;99999.96;;;7.47;47.17
42003;BME280;27693;50.506;30.832;2023-04-29T05:35:06;99983.56;;;7.47;47.01
42003;BME280;27693;50.506;30.832;2023-04-29T05:36:09;99991.26;;;7.50;47.08
42003;BME280;27693;50.506;30.832;2023-04-29T05:37:12;99991.26;;;7.50;47.08
42003;BME280;27693;50.506;30.832;2023-04-29T05:38:16;100004.15;;;7.51;47.13
42003;BME280;27693;50.506;30.832;2023-04-29T05:39:20;100002.38;;;7.54;47.15
42003;BME280;27693;50.506;30.832;2023-04-29T05:40:25;100001.48;;;7.55;47.15
42003;BME280;27693;50.506;30.832;2023-04-29T05:41:30;99999.61;;;7.60;47.46
42003;BME280;27693;50.506;30.832;2023-04-29T05:42:38;100002.09;;;7.63;47.43
42003;BME280;27693;50.506;30.832;2023-04-29T05:43:41;100002.06;;;7.64;47.42
42003;BME280;27693;50.506;30.832;2023-04-29T05:44:43;100004.66;;;7.64;47.82
42003;BME280;27693;50.506;30.832;2023-04-29T05:45:47;100009.73;;;7.67;47.54
42003;BME280;27693;50.506;30.832;2023-04-29T05:46:51;100006.20;;;7.70;47.46
42003;BME280;27693;50.506;30.832;2023-04-29T05:47:53;100007.82;;;7.74;47.05
42003;BME280;27693;50.506;30.832;2023-04-29T05:48:57;100002.64;;;7.74;46.95
42003;BME280;27693;50.506;30.832;2023-04-29T05:49:59;100007.82;;;7.74;46.75
42003;BME280;27693;50.506;30.832;2023-04-29T05:51:03;100005.94;;;7.79;46.22
42003;BME280;27693;50.506;30.832;2023-04-29T05:52:06;100004.16;;;7.81;46.35
42003;BME280;27693;50.506;30.832;2023-04-29T05:53:11;100003.29;;;7.81;45.94
42003;BME280;27693;50.506;30.832;2023-04-29T05:54:16;100006.64;;;7.84;46.08
42003;BME280;27693;50.506;30.832;2023-04-29T05:55:20;100004.86;;;7.87;46.07
42003;BME280;27693;50.506;30.832;2023-04-29T05:56:23;100005.70;;;7.87;45.92
42003;BME280;27693;50.506;30.832;2023-04-29T05:57:26;100003.10;;;7.87;45.87